Adamsville, Rhode Island
Current Conditions -  °F | °C
As of 3:53 AM on Monday 24 Nov 2014 (Local Time) from KUUU Reporting Station
Light Rain Light Rain  
Wind Chill: 13°   Ceiling: 3600
Heat Index: 13°   Visibility: 5mi
Dew Point: 12°   Wind: 14mph
Humidity: 90%   Direction: 140°SE
Pressure: 29.98"   Gusts: 21mph
Location:  41.55°N, 71.13°W
Report Text: KUUU 240853Z AUTO 14012G18KT 5SM -RA BR FEW030 BKN036 OVC043 13/12 A2998 RMK AO2 RAB39 SLP150 P0000 60000 T01330117 58029 $
Loading
Personal Weather Stations






























Interactive Weather Map New forecast layout! Learn more

10-Day Weather Forecast

Advertisements
Track Severe Weather on mobile